Time;durP1;ratioP1;P1;durP2;ratioP2;P2;SDS_P1;SDS_P2;PMS_P1;PMS_P2;Temp;Humidity;BMP_temperature;BMP_pressure;BME280_temperature;BME280_humidity;BME280_pressure;Samples;Min_cycle;Max_cycle;Signal;HPM_P1;HPM_P2
2023/06/07 04:57:32;;;;;;;8.93;4.00;;;;;;;22.49;55.60;101243.09;2119745;27;20336;-71
2023/06/07 04:58:40;;;;;;;5.60;3.72;;;;;;;22.75;55.13;101243.53;2111805;28;20024;-71
2023/06/07 04:59:44;;;;;;;5.38;3.17;;;;;;;23.00;54.82;101238.84;2104532;28;20102;-72
2023/06/07 05:00:56;;;;;;;7.03;3.65;;;;;;;23.10;53.76;101241.09;2112631;28;20074;-72
2023/06/07 05:01:59;;;;;;;7.05;3.97;;;;;;;23.13;53.72;101239.59;2104656;28;20912;-73
2023/06/07 05:03:06;;;;;;;11.02;4.20;;;;;;;23.29;53.69;101243.22;2095779;28;20037;-74
2023/06/07 05:04:09;;;;;;;10.93;4.28;;;;;;;23.26;53.56;101243.91;2097110;28;20040;-73
2023/06/07 05:05:18;;;;;;;6.70;3.70;;;;;;;23.45;53.19;101242.47;2104774;28;20029;-73
2023/06/07 05:06:21;;;;;;;7.10;3.60;;;;;;;23.50;52.55;101242.22;2095130;28;20964;-74
2023/06/07 05:07:32;;;;;;;5.93;3.13;;;;;;;23.60;52.20;101238.97;2080792;28;20046;-73
2023/06/07 05:08:34;;;;;;;5.18;3.30;;;;;;;23.75;51.74;101238.25;2088080;28;20942;-73
2023/06/07 05:09:36;;;;;;;8.40;3.33;;;;;;;23.77;51.22;101235.97;2103491;28;21456;-73
2023/06/07 05:10:40;;;;;;;7.47;3.63;;;;;;;23.74;51.32;101246.81;2087181;28;20094;-73
2023/06/07 05:11:45;;;;;;;5.05;3.33;;;;;;;23.70;51.40;101241.25;2079669;28;20120;-72
2023/06/07 05:12:48;;;;;;;6.38;3.60;;;;;;;23.61;51.27;101240.56;2095797;28;20831;-74
2023/06/07 05:13:50;;;;;;;10.68;3.25;;;;;;;23.56;51.77;101236.13;2087330;28;20022;-73
2023/06/07 05:14:53;;;;;;;5.65;3.35;;;;;;;23.70;51.59;101243.19;2094441;28;20077;-74
2023/06/07 05:15:57;;;;;;;7.53;3.42;;;;;;;23.77;51.80;101246.94;2098564;28;21402;-74
2023/06/07 05:17:01;;;;;;;10.68;4.30;;;;;;;23.96;51.21;101239.94;2099782;28;20122;-74
2023/06/07 05:18:07;;;;;;;5.70;3.20;;;;;;;23.96;50.81;101249.00;2092312;28;20034;-74
2023/06/07 05:19:16;;;;;;;6.30;3.42;;;;;;;23.85;50.78;101252.63;2089389;28;20025;-75
2023/06/07 05:20:18;;;;;;;8.02;3.35;;;;;;;23.88;51.34;101246.41;2087072;28;20982;-74
2023/06/07 05:21:20;;;;;;;6.38;3.08;;;;;;;23.54;50.59;101245.88;2094709;28;20067;-74
2023/06/07 05:22:23;;;;;;;6.07;3.28;;;;;;;23.63;51.36;101249.25;2096787;28;20037;-74
2023/06/07 05:23:26;;;;;;;3.88;3.00;;;;;;;23.78;50.82;101254.03;2081735;28;20037;-74
2023/06/07 05:24:29;;;;;;;5.60;2.80;;;;;;;23.69;50.46;101249.84;2091895;28;20891;-74
2023/06/07 05:25:32;;;;;;;5.38;3.10;;;;;;;23.89;50.56;101248.00;2094002;28;20837;-74
2023/06/07 05:26:35;;;;;;;4.05;2.92;;;;;;;23.96;49.84;101248.19;2094941;28;20735;-75
2023/06/07 05:27:38;;;;;;;4.88;2.97;;;;;;;24.01;49.95;101245.97;2095508;28;20800;-75
2023/06/07 05:28:41;;;;;;;4.85;2.78;;;;;;;24.23;49.86;101241.81;2077994;28;20061;-75
2023/06/07 05:29:43;;;;;;;5.45;2.70;;;;;;;24.45;49.32;101243.19;2082454;28;20160;-75
2023/06/07 05:30:49;;;;;;;6.95;2.65;;;;;;;24.68;48.77;101248.81;2083874;28;20984;-73
2023/06/07 05:31:53;;;;;;;5.78;3.10;;;;;;;24.93;48.17;101245.84;2088435;28;20108;-75
2023/06/07 05:32:54;;;;;;;4.95;3.20;;;;;;;24.97;47.68;101252.22;2083421;28;20046;-75
2023/06/07 05:33:58;;;;;;;6.63;3.60;;;;;;;25.04;47.78;101246.09;2093011;28;20032;-74
2023/06/07 05:35:01;;;;;;;7.22;3.42;;;;;;;25.04;46.82;101246.09;2092599;28;20042;-75
2023/06/07 05:36:04;;;;;;;7.50;3.38;;;;;;;24.69;47.55;101244.94;2092149;28;20022;-75
2023/06/07 05:37:06;;;;;;;4.75;2.92;;;;;;;24.79;47.92;101240.03;2096377;28;20133;-75
2023/06/07 05:38:10;;;;;;;6.93;2.75;;;;;;;25.03;48.18;101247.22;2083449;28;20874;-74
2023/06/07 05:39:12;;;;;;;5.82;2.78;;;;;;;24.91;46.55;101248.16;2097045;28;20032;-75
2023/06/07 05:40:18;;;;;;;5.25;2.65;;;;;;;24.78;47.27;101250.25;2094448;28;20744;-74
2023/06/07 05:41:19;;;;;;;4.20;2.78;;;;;;;25.09;47.59;101243.81;2085903;28;20026;-75
2023/06/07 05:42:20;;;;;;;4.95;3.25;;;;;;;25.33;46.63;101247.50;2075747;28;20105;-75
2023/06/07 05:43:21;;;;;;;5.72;2.90;;;;;;;25.59;46.25;101249.56;2083612;28;20069;-75
2023/06/07 05:44:24;;;;;;;7.78;2.60;;;;;;;25.67;45.76;101240.31;2084004;28;20041;-74
2023/06/07 05:45:28;;;;;;;4.53;2.80;;;;;;;25.66;45.50;101245.00;2085053;28;20739;-74
2023/06/07 05:46:30;;;;;;;4.35;2.47;;;;;;;25.71;45.79;101240.34;2083726;28;20080;-75
2023/06/07 05:47:31;;;;;;;7.15;2.53;;;;;;;25.86;45.37;101243.03;2093982;28;20156;-74
2023/06/07 05:48:34;;;;;;;7.55;2.92;;;;;;;25.90;45.04;101248.63;2093531;28;20041;-74
2023/06/07 05:49:36;;;;;;;8.20;2.80;;;;;;;25.87;44.88;101239.13;2100588;28;20029;-74
2023/06/07 05:50:39;;;;;;;6.55;2.85;;;;;;;25.90;44.26;101248.63;2092408;28;20044;-74
2023/06/07 05:51:45;;;;;;;3.92;2.47;;;;;;;25.83;43.85;101248.50;2086235;28;20026;-74
2023/06/07 05:52:52;;;;;;;3.38;2.47;;;;;;;25.69;43.50;101243.47;2093945;28;20025;-74
2023/06/07 05:53:55;;;;;;;5.40;2.38;;;;;;;25.60;43.86;101240.16;2088843;28;20073;-74
2023/06/07 05:54:58;;;;;;;5.00;2.67;;;;;;;25.52;44.53;101233.72;2088754;28;20026;-74
2023/06/07 05:56:02;;;;;;;5.13;2.50;;;;;;;25.42;44.13;101235.09;2100377;27;20029;-72
2023/06/07 05:57:06;;;;;;;7.15;2.53;;;;;;;25.53;44.13;101240.81;2090167;28;20076;-72
2023/06/07 05:58:07;;;;;;;4.15;2.55;;;;;;;25.62;43.82;101249.63;2078159;28;20026;-78
2023/06/07 05:59:09;;;;;;;5.53;2.25;;;;;;;25.87;43.29;101249.34;2084081;28;20033;-79
2023/06/07 06:00:15;;;;;;;4.05;2.20;;;;;;;25.92;43.25;101240.78;2078087;28;20038;-79
2023/06/07 06:01:17;;;;;;;4.38;2.60;;;;;;;26.14;43.12;101241.16;2077410;28;20085;-78
2023/06/07 06:02:20;;;;;;;4.22;2.70;;;;;;;26.07;42.06;101242.63;2082947;28;20093;-78
2023/06/07 06:03:21;;;;;;;4.63;2.35;;;;;;;25.82;43.12;101249.63;2095554;28;20099;-78
2023/06/07 06:04:24;;;;;;;5.63;2.30;;;;;;;25.75;42.88;101255.00;2095712;28;20033;-77
2023/06/07 06:05:27;;;;;;;5.25;2.35;;;;;;;25.32;44.12;101245.91;2087615;28;20808;-77
2023/06/07 06:06:29;;;;;;;7.45;2.45;;;;;;;25.43;44.34;101249.66;2087445;28;20835;-77
2023/06/07 06:07:31;;;;;;;3.90;2.38;;;;;;;25.69;43.77;101242.69;2086993;28;20152;-77
2023/06/07 06:08:35;;;;;;;9.35;2.25;;;;;;;25.94;43.93;101248.66;2083872;28;20951;-77
2023/06/07 06:09:37;;;;;;;4.45;2.33;;;;;;;26.28;43.39;101247.69;2073766;28;20026;-78
2023/06/07 06:10:41;;;;;;;5.18;2.40;;;;;;;26.56;43.00;101243.81;2073919;28;20038;-77
2023/06/07 06:11:43;;;;;;;3.65;2.33;;;;;;;26.73;41.13;101251.53;2073835;28;20037;-78
2023/06/07 06:12:44;;;;;;;3.22;2.30;;;;;;;26.85;41.22;101253.28;2082125;28;20094;-76
2023/06/07 06:13:48;;;;;;;5.25;2.35;;;;;;;27.05;40.68;101256.75;2079189;28;20038;-76
2023/06/07 06:14:50;;;;;;;7.30;2.40;;;;;;;27.10;39.95;101250.09;2074248;28;20030;-76
2023/06/07 06:15:51;;;;;;;3.35;2.30;;;;;;;27.01;39.33;101256.66;2089980;28;21379;-76
2023/06/07 06:16:53;;;;;;;3.17;2.45;;;;;;;27.01;39.98;101253.91;2089710;28;20067;-76
2023/06/07 06:17:57;;;;;;;6.72;2.25;;;;;;;27.20;39.27;101263.25;2087857;28;20788;-74
2023/06/07 06:18:59;;;;;;;4.18;2.55;;;;;;;27.38;38.61;101258.75;2080384;28;21448;-73
2023/06/07 06:20:01;;;;;;;3.08;2.30;;;;;;;27.38;38.11;101255.19;2090412;28;20025;-74
2023/06/07 06:21:03;;;;;;;5.57;2.53;;;;;;;27.56;37.65;101258.19;2081537;28;20024;-74
2023/06/07 06:22:05;;;;;;;2.97;2.40;;;;;;;27.47;38.05;101261.22;2080106;28;20112;-74
2023/06/07 06:23:07;;;;;;;4.90;2.42;;;;;;;27.27;38.87;101263.38;2090175;28;20757;-74
2023/06/07 06:24:09;;;;;;;2.80;2.28;;;;;;;26.97;39.72;101260.56;2090032;28;20115;-73
2023/06/07 06:25:12;;;;;;;3.97;2.50;;;;;;;27.03;39.34;101259.88;2098432;28;20064;-74
2023/06/07 06:26:16;;;;;;;4.97;2.40;;;;;;;27.03;38.66;101259.88;2094917;28;20073;-74
2023/06/07 06:27:20;;;;;;;4.00;2.58;;;;;;;27.04;39.80;101253.16;2087815;28;20892;-74
2023/06/07 06:28:22;;;;;;;3.47;2.13;;;;;;;27.20;39.27;101257.72;2099568;28;20202;-74
2023/06/07 06:29:24;;;;;;;6.22;2.50;;;;;;;27.34;38.75;101265.41;2099402;28;20095;-75
2023/06/07 06:30:27;;;;;;;4.05;2.75;;;;;;;27.31;38.94;101257.88;2100942;28;20857;-74
2023/06/07 06:31:28;;;;;;;5.00;2.90;;;;;;;27.23;38.99;101256.97;2086247;28;20026;-75
2023/06/07 06:32:30;;;;;;;7.53;2.38;;;;;;;27.23;39.04;101254.22;2068118;28;20089;-75
2023/06/07 06:33:32;;;;;;;5.53;2.67;;;;;;;26.95;38.22;101260.91;2084752;28;20086;-75
2023/06/07 06:34:33;;;;;;;3.60;2.40;;;;;;;26.75;38.05;101254.75;2091396;28;20743;-74
2023/06/07 06:35:35;;;;;;;4.18;2.45;;;;;;;26.94;39.00;101251.06;2092952;28;20020;-74
2023/06/07 06:36:37;;;;;;;4.07;2.70;;;;;;;27.37;38.39;101259.16;2093875;28;20143;-75
2023/06/07 06:37:39;;;;;;;4.28;2.85;;;;;;;27.68;37.57;101255.13;2085271;28;20030;-74
2023/06/07 06:38:40;;;;;;;6.40;2.95;;;;;;;27.93;36.92;101259.00;2075678;28;20030;-74
2023/06/07 06:39:42;;;;;;;3.60;2.40;;;;;;;27.94;37.36;101257.81;2084803;28;20057;-74
2023/06/07 06:40:45;;;;;;;4.35;2.30;;;;;;;28.13;37.18;101259.56;2078607;28;20030;-74
2023/06/07 06:41:49;;;;;;;4.22;2.30;;;;;;;28.27;36.97;101258.88;2085001;28;20192;-75
2023/06/07 06:42:59;;;;;;;4.00;2.30;;;;;;;28.08;36.67;101261.88;2102131;28;20143;-73
2023/06/07 06:44:30;;;;;;;5.10;2.72;;;;;;;28.18;37.15;101261.97;2088161;28;20036;-73
2023/06/07 06:45:32;;;;;;;3.80;2.25;;;;;;;28.26;36.52;101262.03;2070442;28;20026;-73
2023/06/07 06:46:33;;;;;;;4.40;2.47;;;;;;;28.34;36.83;101264.47;2079797;28;20065;-73
2023/06/07 06:47:37;;;;;;;4.60;2.58;;;;;;;28.21;37.30;101260.41;2113751;28;20135;-72
2023/06/07 06:48:38;;;;;;;6.93;3.42;;;;;;;28.06;36.79;101265.03;2090027;28;20076;-72
2023/06/07 06:49:40;;;;;;;4.65;3.17;;;;;;;28.17;35.62;101262.34;2090170;28;20029;-73
2023/06/07 06:50:43;;;;;;;4.25;2.47;;;;;;;28.34;35.56;101264.47;2090011;28;20876;-72
2023/06/07 06:51:45;;;;;;;4.10;2.33;;;;;;;28.40;34.39;101270.47;2090864;28;20206;-72
2023/06/07 06:52:47;;;;;;;5.15;2.67;;;;;;;28.22;35.66;101273.06;2090425;28;20061;-73
2023/06/07 06:53:52;;;;;;;8.52;2.50;;;;;;;28.24;35.71;101262.41;2081975;28;20029;-73
2023/06/07 06:54:56;;;;;;;3.15;2.38;;;;;;;28.29;35.57;101262.06;2090875;28;20025;-72
2023/06/07 06:56:00;;;;;;;3.15;2.28;;;;;;;28.32;35.18;101266.81;2098869;28;20875;-72
2023/06/07 06:57:03;;;;;;;6.28;2.90;;;;;;;28.52;35.41;101263.84;2099729;28;20059;-72
2023/06/07 06:58:05;;;;;;;4.90;2.42;;;;;;;28.71;35.02;101271.88;2089669;28;20154;-72
2023/06/07 06:59:07;;;;;;;4.40;2.72;;;;;;;28.22;35.76;101264.78;2074670;28;20042;-73
2023/06/07 07:00:11;;;;;;;6.05;2.55;;;;;;;28.30;36.59;101276.69;2082630;28;20117;-72
2023/06/07 07:01:15;;;;;;;4.07;2.28;;;;;;;28.59;35.68;101269.41;2099941;28;20968;-73
2023/06/07 07:02:17;;;;;;;6.30;2.25;;;;;;;28.64;33.62;101269.84;2099722;28;20033;-72
2023/06/07 07:03:18;;;;;;;2.70;2.20;;;;;;;28.91;34.01;101272.41;2082396;28;20029;-72
2023/06/07 07:04:20;;;;;;;4.45;2.53;;;;;;;29.12;33.56;101266.19;2098911;28;20025;-73
2023/06/07 07:05:21;;;;;;;5.13;2.90;;;;;;;29.48;33.96;101263.59;2099334;28;20029;-73
2023/06/07 07:06:23;;;;;;;5.38;3.03;;;;;;;29.77;33.37;101265.25;2090647;28;20076;-72
2023/06/07 07:07:27;;;;;;;7.70;2.58;;;;;;;29.84;33.59;101269.22;2091254;28;20890;-72
2023/06/07 07:08:29;;;;;;;8.10;2.95;;;;;;;29.30;34.70;101263.50;2107336;28;20094;-72
2023/06/07 07:09:31;;;;;;;5.78;2.60;;;;;;;29.30;34.55;101267.06;2107931;28;20847;-72
2023/06/07 07:10:33;;;;;;;7.70;3.67;;;;;;;29.01;34.80;101266.16;2116741;28;20708;-72
2023/06/07 07:11:35;;;;;;;4.13;2.53;;;;;;;29.31;34.32;101265.88;2107533;28;20885;-72
2023/06/07 07:12:41;;;;;;;4.63;2.45;;;;;;;29.04;34.09;101267.34;2100079;28;20847;-72
2023/06/07 07:13:43;;;;;;;3.05;2.33;;;;;;;28.83;34.15;101268.78;2099966;28;20040;-72
2023/06/07 07:14:46;;;;;;;3.53;2.30;;;;;;;28.68;34.95;101271.84;2107666;28;20016;-72
2023/06/07 07:15:47;;;;;;;4.45;2.50;;;;;;;29.02;35.36;101267.72;2099176;28;20886;-72
2023/06/07 07:16:49;;;;;;;3.53;2.35;;;;;;;29.50;33.67;101272.28;2099182;28;20994;-72
2023/06/07 07:17:50;;;;;;;6.20;2.30;;;;;;;29.61;33.06;101270.38;2082699;28;20045;-73
2023/06/07 07:18:52;;;;;;;4.72;2.40;;;;;;;29.75;33.13;101278.69;2091017;28;20917;-72
2023/06/07 07:19:53;;;;;;;3.60;2.15;;;;;;;29.94;33.18;101285.06;2098958;28;20021;-72
2023/06/07 07:20:55;;;;;;;3.92;2.35;;;;;;;30.10;32.41;101268.06;2090101;28;20255;-72
2023/06/07 07:21:56;;;;;;;4.38;2.20;;;;;;;30.27;32.01;101275.63;2099603;28;20051;-72
2023/06/07 07:23:01;;;;;;;5.90;2.50;;;;;;;30.40;32.93;101273.25;2107565;28;20033;-72
2023/06/07 07:24:07;;;;;;;3.72;2.38;;;;;;;30.60;31.36;101276.41;2099546;28;20041;-72
2023/06/07 07:25:09;;;;;;;5.10;2.53;;;;;;;30.76;31.65;101273.19;2098684;28;20021;-73
2023/06/07 07:26:10;;;;;;;4.32;2.30;;;;;;;30.84;31.41;101269.25;2082812;28;20107;-72
2023/06/07 07:27:12;;;;;;;3.60;2.20;;;;;;;31.02;30.78;101274.72;2099310;28;20063;-72
2023/06/07 07:28:17;;;;;;;8.57;2.22;;;;;;;31.01;31.02;101275.94;2090969;28;20056;-72
2023/06/07 07:29:19;;;;;;;3.90;2.05;;;;;;;31.12;31.22;101271.94;2069643;28;20130;-72
2023/06/07 07:30:23;;;;;;;3.40;2.05;;;;;;;31.49;30.83;101273.38;2066978;28;20042;-72
2023/06/07 07:31:25;;;;;;;3.42;2.08;;;;;;;31.24;29.67;101275.44;2075318;28;20035;-72
2023/06/07 07:32:26;;;;;;;3.00;2.00;;;;;;;30.79;30.44;101272.44;2090907;28;20132;-72
2023/06/07 07:33:28;;;;;;;3.88;2.22;;;;;;;30.99;30.67;101265.25;2082235;28;20029;-72
2023/06/07 07:34:34;;;;;;;5.40;2.63;;;;;;;31.17;30.16;101271.50;2087652;28;20022;-72
2023/06/07 07:35:36;;;;;;;4.82;2.13;;;;;;;31.26;30.20;101273.84;2090194;28;20081;-72
2023/06/07 07:36:39;;;;;;;3.58;2.30;;;;;;;31.21;29.90;101270.69;2090712;28;20130;-72
2023/06/07 07:37:41;;;;;;;7.43;2.40;;;;;;;31.04;30.07;101267.59;2082650;28;20046;-72
2023/06/07 07:38:45;;;;;;;6.03;2.40;;;;;;;31.00;29.85;101272.38;2091157;28;20752;-72
2023/06/07 07:39:47;;;;;;;2.97;1.95;;;;;;;30.64;30.29;101269.66;2082071;28;20782;-72
2023/06/07 07:40:54;;;;;;;4.10;2.20;;;;;;;30.73;30.43;101274.00;2075482;28;20039;-72
2023/06/07 07:41:55;;;;;;;2.70;2.10;;;;;;;30.27;30.45;101274.84;2082871;28;20975;-72
2023/06/07 07:42:59;;;;;;;4.78;2.13;;;;;;;30.17;31.35;101270.84;2083134;28;20030;-72
2023/06/07 07:44:04;;;;;;;5.55;2.10;;;;;;;30.51;29.83;101270.47;2082637;28;20952;-73
2023/06/07 07:45:07;;;;;;;6.45;2.10;;;;;;;30.41;30.40;101272.06;2082664;28;20136;-73
2023/06/07 07:46:09;;;;;;;6.03;2.20;;;;;;;30.52;30.20;101275.63;2090973;28;20864;-72
2023/06/07 07:47:11;;;;;;;6.80;2.08;;;;;;;30.61;31.03;101262.13;2098824;28;20916;-72
2023/06/07 07:48:13;;;;;;;3.83;2.38;;;;;;;30.48;30.08;101272.03;2082290;28;20853;-72
2023/06/07 07:49:14;;;;;;;4.28;2.08;;;;;;;30.20;31.18;101272.84;2074209;28;20143;-72
2023/06/07 07:50:17;;;;;;;2.90;2.10;;;;;;;30.00;30.79;101277.97;2090669;28;20181;-72
2023/06/07 07:51:18;;;;;;;2.55;2.17;;;;;;;29.86;31.52;101275.97;2098932;28;20025;-72
2023/06/07 07:52:23;;;;;;;4.75;2.20;;;;;;;29.24;31.61;101276.94;2082401;28;20160;-72
2023/06/07 07:53:25;;;;;;;5.20;2.22;;;;;;;29.85;31.91;101276.34;2082991;28;20188;-72
2023/06/07 07:54:31;;;;;;;4.18;2.17;;;;;;;29.94;30.96;101274.78;2090743;28;20240;-72
2023/06/07 07:55:34;;;;;;;2.83;2.20;;;;;;;29.00;31.81;101274.81;2098978;28;20086;-72
2023/06/07 07:56:36;;;;;;;4.43;2.08;;;;;;;28.98;32.67;101274.41;2098404;28;20025;-72
2023/06/07 07:57:39;;;;;;;4.43;2.40;;;;;;;29.79;32.43;101276.75;2098673;28;20774;-72
2023/06/07 07:58:43;;;;;;;4.40;2.58;;;;;;;29.88;31.45;101270.81;2074274;28;20233;-72
2023/06/07 07:59:45;;;;;;;4.70;2.10;;;;;;;30.10;31.24;101271.63;2074903;28;20026;-72
2023/06/07 08:00:47;;;;;;;6.43;2.13;;;;;;;29.52;31.24;101275.47;2098631;28;20815;-72
2023/06/07 08:01:52;;;;;;;3.63;2.53;;;;;;;29.53;31.13;101271.50;2098843;28;20037;-72
2023/06/07 08:02:54;;;;;;;2.90;2.13;;;;;;;29.46;31.01;101282.56;2081931;28;20159;-72
2023/06/07 08:03:56;;;;;;;4.43;2.40;;;;;;;29.23;31.78;101269.81;2074429;28;20049;-72
2023/06/07 08:04:58;;;;;;;6.32;2.13;;;;;;;29.13;32.17;101265.03;2090907;28;20021;-72
2023/06/07 08:06:00;;;;;;;6.38;2.40;;;;;;;28.40;32.89;101274.03;2098586;28;20829;-72
2023/06/07 08:07:04;;;;;;;3.95;2.35;;;;;;;27.76;33.61;101283.63;2090666;28;20033;-72
2023/06/07 08:08:06;;;;;;;6.38;2.00;;;;;;;27.31;34.03;101280.75;2090550;28;20063;-73
2023/06/07 08:09:13;;;;;;;4.90;2.40;;;;;;;27.05;34.31;101284.34;2066612;28;20102;-73
2023/06/07 08:10:15;;;;;;;4.10;2.45;;;;;;;26.35;35.35;101277.31;2076229;28;20082;-73
2023/06/07 08:11:16;;;;;;;6.05;2.10;;;;;;;26.32;35.25;101275.31;2090490;28;20032;-73
2023/06/07 08:12:19;;;;;;;5.20;2.72;;;;;;;26.07;35.71;101281.22;2090675;28;20024;-73
2023/06/07 08:13:20;;;;;;;7.57;2.40;;;;;;;25.98;36.61;101280.66;2082367;28;20053;-72
2023/06/07 08:14:24;;;;;;;4.90;2.10;;;;;;;25.33;37.31;101277.78;2082144;28;21253;-73
2023/06/07 08:15:27;;;;;;;4.60;2.20;;;;;;;24.91;37.71;101283.91;2082923;28;20850;-72
2023/06/07 08:16:30;;;;;;;6.93;2.20;;;;;;;24.65;38.48;101270.72;2098944;28;20040;-72
2023/06/07 08:17:31;;;;;;;4.18;2.28;;;;;;;24.22;39.52;101275.16;2090638;28;20042;-73
2023/06/07 08:18:33;;;;;;;7.38;2.13;;;;;;;24.28;39.27;101276.50;2082211;28;20026;-73
2023/06/07 08:19:35;;;;;;;6.38;2.20;;;;;;;24.58;39.45;101279.63;2090422;28;20089;-73
2023/06/07 08:20:38;;;;;;;8.10;2.50;;;;;;;24.89;39.62;101277.97;2098720;28;20029;-72
2023/06/07 08:21:43;;;;;;;9.18;2.38;;;;;;;24.51;39.46;101284.94;2098648;28;20021;-73
2023/06/07 08:22:50;;;;;;;5.15;2.35;;;;;;;24.14;39.94;101290.66;2099583;28;20033;-73
2023/06/07 08:23:55;;;;;;;3.45;1.90;;;;;;;24.29;39.03;101284.38;2098673;28;20017;-72
2023/06/07 08:24:57;;;;;;;3.20;2.13;;;;;;;24.40;39.25;101289.34;2082533;28;20034;-72
2023/06/07 08:26:03;;;;;;;4.53;2.17;;;;;;;24.08;38.90;101283.81;2091153;28;20081;-74
2023/06/07 08:27:07;;;;;;;7.50;2.10;;;;;;;24.02;39.27;101288.81;2090234;28;20037;-73
2023/06/07 08:28:10;;;;;;;5.43;1.95;;;;;;;23.46;39.97;101279.78;2083505;28;21081;-73
2023/06/07 08:29:12;;;;;;;6.43;2.33;;;;;;;23.41;40.81;101285.50;2084241;28;20872;-73
2023/06/07 08:30:14;;;;;;;8.00;3.20;;;;;;;23.64;41.15;101283.00;2090409;28;20048;-74
2023/06/07 08:31:17;;;;;;;4.45;2.30;;;;;;;23.46;40.72;101290.75;2089856;28;20044;-73
2023/06/07 08:32:21;;;;;;;4.13;2.20;;;;;;;23.42;40.55;101295.31;2082413;28;20840;-74
2023/06/07 08:33:25;;;;;;;5.57;2.95;;;;;;;23.41;41.04;101285.50;2082647;28;20064;-74
2023/06/07 08:34:28;;;;;;;5.38;2.42;;;;;;;23.41;40.51;101288.22;2090312;28;20030;-74
2023/06/07 08:35:29;;;;;;;5.20;2.28;;;;;;;23.54;40.54;101287.03;2081814;28;20282;-74
2023/06/07 08:36:31;;;;;;;4.18;2.08;;;;;;;23.66;40.77;101283.44;2073643;28;20027;-73
2023/06/07 08:37:34;;;;;;;5.53;2.28;;;;;;;23.23;40.53;101290.44;2090065;28;20148;-74
2023/06/07 08:38:38;;;;;;;5.68;2.35;;;;;;;23.36;40.85;101287.34;2090130;28;20832;-74
2023/06/07 08:39:43;;;;;;;3.33;2.42;;;;;;;23.68;40.85;101284.72;2091076;28;20028;-74
2023/06/07 08:40:45;;;;;;;5.43;2.30;;;;;;;23.62;40.41;101283.34;2089905;28;20038;-73
2023/06/07 08:41:47;;;;;;;8.80;4.03;;;;;;;23.75;40.99;101290.41;2065402;28;20116;-73
2023/06/07 08:42:50;;;;;;;4.65;2.20;;;;;;;23.82;40.47;101287.84;2073548;28;20125;-73
2023/06/07 08:43:51;;;;;;;4.65;2.28;;;;;;;23.98;40.84;101287.09;2073971;28;20861;-73
2023/06/07 08:44:53;;;;;;;6.35;3.53;;;;;;;24.20;40.27;101286.50;2081959;28;20976;-73
2023/06/07 08:45:56;;;;;;;4.88;2.20;;;;;;;24.31;38.82;101284.03;2081818;28;20034;-73
2023/06/07 08:46:57;;;;;;;6.07;2.40;;;;;;;24.16;38.57;101280.13;2090080;28;20048;-73
2023/06/07 08:48:06;;;;;;;3.90;2.10;;;;;;;24.07;38.73;101281.44;2073534;28;20996;-73
2023/06/07 08:49:10;;;;;;;3.92;2.22;;;;;;;24.05;38.43;101290.03;2067678;28;20137;-74
2023/06/07 08:50:13;;;;;;;2.50;2.25;;;;;;;24.02;38.83;101287.97;2066549;28;20027;-73
2023/06/07 08:51:22;;;;;;;3.67;1.70;;;;;;;24.03;38.98;101286.84;2066034;28;20041;-73
2023/06/07 08:52:25;;;;;;;4.18;2.33;;;;;;;24.16;38.59;101290.31;2083214;28;20040;-73
2023/06/07 08:53:47;;;;;;;6.13;2.20;;;;;;;24.28;38.48;101287.50;2090204;28;20038;-74
2023/06/07 08:54:50;;;;;;;5.28;2.13;;;;;;;24.07;38.16;101276.75;2084706;28;20061;-73
2023/06/07 08:55:53;;;;;;;4.88;2.15;;;;;;;24.14;38.48;101285.16;2081705;28;20073;-73
2023/06/07 08:56:55;;;;;;;3.08;2.22;;;;;;;24.22;38.23;101283.41;2073534;28;20042;-73
2023/06/07 08:57:59;;;;;;;4.25;2.30;;;;;;;24.16;37.57;101284.81;2082417;28;20075;-74
2023/06/07 08:59:03;;;;;;;11.63;2.53;;;;;;;23.82;38.28;101284.31;2089927;28;20053;-75
2023/06/07 09:00:08;;;;;;;3.03;2.08;;;;;;;23.97;38.40;101289.06;2082430;28;20038;-73
2023/06/07 09:01:11;;;;;;;3.25;2.00;;;;;;;24.09;38.25;101285.44;2089970;28;20032;-74
2023/06/07 09:02:13;;;;;;;3.67;1.90;;;;;;;24.03;37.60;101284.09;2074003;28;20053;-74
2023/06/07 09:03:18;;;;;;;5.05;2.20;;;;;;;24.08;38.04;101278.34;2082473;28;20034;-74
2023/06/07 09:04:20;;;;;;;3.05;2.25;;;;;;;24.15;38.50;101281.28;2081848;28;20026;-73
2023/06/07 09:05:22;;;;;;;4.25;2.28;;;;;;;24.23;38.12;101280.28;2082130;28;20216;-74
2023/06/07 09:06:24;;;;;;;4.55;2.50;;;;;;;24.23;37.74;101271.25;2073576;28;20798;-74
2023/06/07 09:07:26;;;;;;;3.40;2.20;;;;;;;23.89;37.52;101280.97;2082244;28;20770;-74
2023/06/07 09:08:27;;;;;;;4.07;2.10;;;;;;;23.85;37.98;101285.56;2099184;28;20902;-74
2023/06/07 09:09:29;;;;;;;4.60;2.33;;;;;;;23.77;38.25;101285.38;2081621;28;20879;-74
2023/06/07 09:10:33;;;;;;;3.78;2.13;;;;;;;23.84;38.58;101283.97;2073913;28;20054;-74
2023/06/07 09:11:37;;;;;;;3.63;2.08;;;;;;;23.93;37.82;101277.19;2066774;28;20027;-74
2023/06/07 09:12:40;;;;;;;9.00;2.10;;;;;;;23.91;38.33;101284.16;2065824;28;20023;-74
2023/06/07 09:13:41;;;;;;;8.73;2.40;;;;;;;23.90;38.19;101282.59;2082285;28;20136;-73
2023/06/07 09:14:42;;;;;;;3.80;2.00;;;;;;;23.99;38.10;101286.75;2090444;28;20046;-73
2023/06/07 09:15:44;;;;;;;5.60;2.15;;;;;;;24.11;38.02;101276.84;2081862;28;20037;-74
2023/06/07 09:16:56;;;;;;;7.28;2.45;;;;;;;23.99;37.95;101281.28;2081951;28;20022;-74
2023/06/07 09:17:59;;;;;;;4.70;2.10;;;;;;;24.10;37.96;101280.75;2075318;28;20056;-74
2023/06/07 09:19:01;;;;;;;2.67;2.15;;;;;;;24.19;37.89;101284.91;2082451;28;21054;-74
2023/06/07 09:20:19;;;;;;;6.80;2.40;;;;;;;24.26;37.42;101287.03;2073501;28;20026;-74
2023/06/07 09:21:27;;;;;;;4.80;2.15;;;;;;;23.95;37.75;101285.06;2081097;28;20112;-74
2023/06/07 09:22:29;;;;;;;8.53;2.20;;;;;;;23.87;38.18;101280.53;2090270;28;20123;-74
2023/06/07 09:23:40;;;;;;;4.03;2.38;;;;;;;23.90;37.64;101277.09;2081777;28;20799;-73
2023/06/07 09:24:42;;;;;;;2.97;2.33;;;;;;;23.78;38.41;101281.47;2083216;28;20026;-74
2023/06/07 09:25:47;;;;;;;4.72;2.10;;;;;;;23.76;38.39;101280.22;2090038;28;20022;-74
2023/06/07 09:26:51;;;;;;;3.65;1.98;;;;;;;23.88;38.69;101282.91;2081645;28;20049;-74
2023/06/07 09:27:56;;;;;;;3.67;2.20;;;;;;;24.02;38.55;101277.81;2079395;28;20132;-74
2023/06/07 09:29:05;;;;;;;4.53;2.30;;;;;;;24.15;38.35;101280.47;2066422;28;20888;-73
2023/06/07 09:30:08;;;;;;;5.53;2.30;;;;;;;24.25;37.92;101275.25;2069066;28;20137;-73
2023/06/07 09:31:10;;;;;;;9.27;2.42;;;;;;;24.37;38.58;101279.06;2082014;28;20030;-73
2023/06/07 09:32:20;;;;;;;8.00;2.10;;;;;;;24.32;38.22;101282.09;2081106;28;20049;-74
2023/06/07 09:33:34;;;;;;;2.53;1.95;;;;;;;24.21;38.34;101287.28;2082880;28;20030;-74
2023/06/07 09:34:36;;;;;;;3.80;2.15;;;;;;;24.26;38.58;101287.03;2091800;28;20072;-74
2023/06/07 09:35:38;;;;;;;4.50;1.92;;;;;;;24.28;38.84;101282.78;2090115;28;20029;-73
2023/06/07 09:36:50;;;;;;;3.28;2.20;;;;;;;24.11;38.86;101279.56;2081736;28;20026;-74
2023/06/07 09:37:55;;;;;;;5.78;2.30;;;;;;;23.73;39.67;101284.47;2091692;28;20829;-74
2023/06/07 09:38:57;;;;;;;4.18;2.10;;;;;;;23.69;40.48;101278.09;2081671;28;20037;-74
2023/06/07 09:40:07;;;;;;;5.07;2.17;;;;;;;23.78;40.76;101284.22;2073631;28;20042;-74
2023/06/07 09:41:09;;;;;;;;;;;;;;;23.91;40.33;101289.66;2075156;28;20125;-74
2023/06/07 09:42:17;;;;;;;3.10;2.22;;;;;;;24.09;39.49;101296.44;2082016;28;19913;-74
2023/06/07 09:43:18;;;;;;;5.25;2.17;;;;;;;24.03;38.42;101289.59;2090055;28;20068;-73
2023/06/07 09:44:31;;;;;;;3.50;2.33;;;;;;;23.99;38.48;101285.94;2083138;28;20112;-73
2023/06/07 09:45:32;;;;;;;6.97;2.55;;;;;;;23.67;39.17;101288.59;2083143;28;20029;-73
2023/06/07 09:46:36;;;;;;;4.40;2.17;;;;;;;23.59;39.63;101290.34;2074693;28;20038;-74
2023/06/07 09:47:41;;;;;;;3.60;2.20;;;;;;;23.53;39.76;101280.75;2083969;28;20026;-74
2023/06/07 09:48:54;;;;;;;7.93;2.22;;;;;;;23.58;39.55;101283.25;2083109;28;20136;-73
2023/06/07 09:50:06;;;;;;;3.67;2.00;;;;;;;23.63;38.92;101284.94;2085026;28;20046;-73
2023/06/07 09:51:10;;;;;;;3.53;2.05;;;;;;;23.54;38.09;101284.28;2084012;28;20026;-73
2023/06/07 09:52:16;;;;;;;5.65;2.10;;;;;;;23.53;38.63;101279.97;2075124;28;20030;-73